Time;durP1;ratioP1;P1;durP2;ratioP2;P2;SDS_P1;SDS_P2;PMS_P1;PMS_P2;Temp;Humidity;BMP_temperature;BMP_pressure;BME280_temperature;BME280_humidity;BME280_pressure;Samples;Min_cycle;Max_cycle;Signal;HPM_P1;HPM_P2
2023/07/10 00:00:25;;;;;;;1.60;1.50;;;22.40;96.10;;;;;;5050565;28;20244;-63
2023/07/10 00:02:53;;;;;;;1.30;1.30;;;22.40;96.00;;;;;;5024570;28;20220;-63
2023/07/10 00:05:22;;;;;;;1.80;1.70;;;22.50;95.90;;;;;;5052096;28;20201;-64
2023/07/10 00:07:49;;;;;;;2.65;1.33;;;22.40;95.90;;;;;;5053488;28;20337;-64
2023/07/10 00:10:17;;;;;;;1.70;1.60;;;22.50;95.90;;;;;;5052063;28;20255;-65
2023/07/10 00:12:46;;;;;;;1.80;1.70;;;22.40;95.80;;;;;;5053582;28;20653;-64
2023/07/10 00:15:18;;;;;;;1.40;1.30;;;22.40;95.80;;;;;;5052081;28;20861;-64
2023/07/10 00:17:46;;;;;;;1.55;1.48;;;22.40;95.80;;;;;;5053332;28;20676;-64
2023/07/10 00:20:16;;;;;;;1.50;1.40;;;22.40;95.80;;;;;;5052737;28;20297;-64
2023/07/10 00:22:43;;;;;;;1.50;1.40;;;22.30;95.80;;;;;;5052617;28;20275;-64
2023/07/10 00:25:11;;;;;;;1.27;1.25;;;22.20;95.90;;;;;;5048755;28;20229;-64
2023/07/10 00:27:38;;;;;;;1.52;1.42;;;22.20;96.00;;;;;;5052005;28;20198;-64
2023/07/10 00:30:16;;;;;;;1.52;1.42;;;22.20;96.00;;;;;;5051549;28;20194;-64
2023/07/10 00:32:43;;;;;;;1.65;1.55;;;22.20;96.00;;;;;;5036871;28;20262;-63
2023/07/10 00:35:16;;;;;;;1.63;1.52;;;22.10;95.90;;;;;;5052357;28;20205;-63
2023/07/10 00:37:45;;;;;;;1.52;1.42;;;22.10;96.00;;;;;;5034798;28;20690;-64
2023/07/10 00:40:22;;;;;;;1.60;1.50;;;22.10;96.00;;;;;;5051495;28;20194;-65
2023/07/10 00:42:53;;;;;;;1.80;1.70;;;22.00;96.00;;;;;;5052582;28;20296;-64
2023/07/10 00:45:22;;;;;;;1.58;1.48;;;22.00;96.00;;;;;;5051468;28;20300;-64
2023/07/10 00:48:04;;;;;;;1.50;1.40;;;21.90;96.00;;;;;;5052443;28;20284;-64
2023/07/10 00:50:37;;;;;;;1.60;1.50;;;21.90;96.00;;;;;;5052105;28;20190;-64
2023/07/10 00:53:13;;;;;;;1.60;1.50;;;21.90;96.00;;;;;;5050796;28;20201;-63
2023/07/10 00:55:43;;;;;;;1.80;1.70;;;21.90;96.00;;;;;;5050917;28;20236;-64
2023/07/10 00:58:22;;;;;;;1.70;1.60;;;21.90;96.00;;;;;;5051864;28;20263;-64
2023/07/10 01:03:34;;;;;;;1.77;1.67;;;21.90;95.90;;;;;;5106976;22;20229;-63
2023/07/10 01:06:07;;;;;;;1.60;1.50;;;21.90;95.90;;;;;;5024029;28;20288;-64
2023/07/10 01:08:39;;;;;;;1.42;1.33;;;21.90;95.90;;;;;;5031622;28;20289;-63
2023/07/10 01:11:06;;;;;;;1.30;1.30;;;21.90;95.90;;;;;;5012390;28;20213;-64
2023/07/10 01:13:34;;;;;;;1.45;1.35;;;21.90;95.90;;;;;;5031571;28;20257;-64
2023/07/10 01:16:02;;;;;;;1.42;1.33;;;21.90;95.80;;;;;;5013319;28;20237;-64
2023/07/10 01:18:29;;;;;;;1.38;1.38;;;21.90;95.80;;;;;;5030620;28;20199;-64
2023/07/10 01:21:14;;;;;;;1.38;1.30;;;21.90;95.70;;;;;;5031336;28;20270;-65
2023/07/10 01:23:41;;;;;;;1.30;1.30;;;21.90;95.60;;;;;;5030704;28;20660;-63
2023/07/10 01:26:10;;;;;;;1.30;1.30;;;21.90;95.70;;;;;;5030503;28;20191;-64
2023/07/10 01:28:37;;;;;;;1.45;1.30;;;21.90;95.70;;;;;;5032021;28;20554;-64
2023/07/10 01:31:09;;;;;;;1.40;1.30;;;21.90;95.70;;;;;;5030164;28;20215;-64
2023/07/10 01:33:41;;;;;;;1.75;1.65;;;21.90;95.70;;;;;;5030832;28;20622;-63
2023/07/10 01:36:13;;;;;;;1.30;1.20;;;21.90;95.70;;;;;;5012976;28;20206;-64
2023/07/10 01:38:45;;;;;;;1.60;1.50;;;21.90;95.80;;;;;;5023030;28;20194;-64
2023/07/10 01:41:28;;;;;;;1.63;1.52;;;21.70;95.80;;;;;;5030371;28;20199;-64
2023/07/10 01:43:55;;;;;;;1.65;1.55;;;21.70;95.90;;;;;;5015938;28;20268;-65
2023/07/10 01:46:26;;;;;;;1.60;1.50;;;21.70;95.90;;;;;;5012666;28;20213;-65
2023/07/10 01:48:57;;;;;;;1.38;1.38;;;21.80;96.30;;;;;;5030429;28;20662;-65
2023/07/10 01:51:25;;;;;;;1.15;1.15;;;21.80;96.00;;;;;;5030617;28;20198;-66
2023/07/10 01:53:53;;;;;;;1.27;1.27;;;21.80;96.00;;;;;;5030977;28;20190;-64
2023/07/10 01:56:22;;;;;;;1.20;1.20;;;21.80;96.00;;;;;;5031527;28;20198;-65
2023/07/10 01:58:49;;;;;;;1.50;1.40;;;21.80;96.10;;;;;;5031801;28;20198;-64
2023/07/10 02:01:16;;;;;;;1.60;1.50;;;21.80;96.20;;;;;;5012366;28;20605;-64
2023/07/10 02:03:43;;;;;;;1.48;1.38;;;21.70;96.20;;;;;;5008407;28;20257;-63
2023/07/10 02:06:13;;;;;;;1.52;1.42;;;21.80;96.30;;;;;;5010426;28;20230;-64
2023/07/10 02:08:43;;;;;;;1.55;1.45;;;21.70;96.30;;;;;;5009267;28;20290;-63
2023/07/10 02:11:12;;;;;;;1.65;1.55;;;21.70;96.30;;;;;;5010536;28;20195;-64
2023/07/10 02:13:39;;;;;;;1.60;1.50;;;21.60;96.40;;;;;;5010389;28;20667;-63
2023/07/10 02:16:06;;;;;;;1.67;1.52;;;21.50;96.60;;;;;;5010111;28;20646;-63
2023/07/10 02:18:33;;;;;;;1.63;1.50;;;21.50;96.80;;;;;;5006671;28;20199;-65
2023/07/10 02:21:00;;;;;;;1.60;1.50;;;21.50;97.00;;;;;;5007877;28;20210;-64
2023/07/10 02:23:27;;;;;;;1.52;1.50;;;21.50;97.10;;;;;;5007324;28;20669;-64
2023/07/10 02:25:56;;;;;;;1.45;1.45;;;21.60;97.20;;;;;;5009006;28;20612;-64
2023/07/10 02:28:23;;;;;;;1.85;1.75;;;21.50;97.20;;;;;;5008301;28;20245;-65
2023/07/10 02:30:50;;;;;;;1.58;1.48;;;21.50;97.40;;;;;;5008407;28;20203;-64
2023/07/10 02:33:18;;;;;;;1.80;1.70;;;21.40;97.60;;;;;;5011628;28;20566;-65
2023/07/10 02:35:46;;;;;;;2.03;1.85;;;21.50;97.80;;;;;;5010239;28;20273;-64
2023/07/10 02:38:13;;;;;;;1.48;1.38;;;21.40;98.00;;;;;;5011374;28;20203;-65
2023/07/10 02:40:41;;;;;;;1.60;1.50;;;21.50;98.10;;;;;;5009047;28;20203;-64
2023/07/10 02:43:09;;;;;;;1.70;1.60;;;21.50;98.20;;;;;;5006571;28;20566;-64
2023/07/10 02:45:37;;;;;;;2.67;1.58;;;21.50;98.30;;;;;;5010221;28;20522;-65
2023/07/10 02:48:04;;;;;;;2.50;1.70;;;21.40;98.40;;;;;;5008355;28;20211;-65
2023/07/10 02:50:33;;;;;;;2.60;2.40;;;21.40;98.60;;;;;;5009625;28;20230;-64
2023/07/10 02:53:02;;;;;;;2.80;2.60;;;21.30;98.90;;;;;;5009927;28;20226;-63
2023/07/10 02:55:29;;;;;;;2.50;2.33;;;21.30;99.30;;;;;;5011231;28;20290;-64
2023/07/10 02:57:56;;;;;;;2.70;2.47;;;21.30;99.40;;;;;;5026042;28;20207;-63
2023/07/10 03:00:24;;;;;;;2.10;1.90;;;21.40;99.50;;;;;;5010612;28;20203;-64
2023/07/10 03:02:54;;;;;;;2.25;2.05;;;21.40;99.60;;;;;;5012539;28;20328;-63
2023/07/10 03:05:21;;;;;;;2.35;2.13;;;21.40;99.60;;;;;;5029212;28;20253;-64
2023/07/10 03:07:49;;;;;;;2.17;1.98;;;21.40;99.80;;;;;;5029463;28;20285;-64
2023/07/10 03:10:16;;;;;;;1.95;1.85;;;21.50;99.90;;;;;;5030253;28;20210;-64
2023/07/10 03:12:43;;;;;;;2.17;1.98;;;21.50;99.90;;;;;;5011310;28;20237;-63
2023/07/10 03:15:11;;;;;;;2.17;2.00;;;21.50;99.90;;;;;;5021765;28;20733;-63
2023/07/10 03:17:40;;;;;;;1.80;1.70;;;21.50;99.90;;;;;;5028326;28;20645;-63
2023/07/10 03:20:08;;;;;;;1.63;1.52;;;21.50;99.90;;;;;;5028789;28;20190;-64
2023/07/10 03:22:36;;;;;;;2.08;1.88;;;21.50;99.90;;;;;;5011509;28;20212;-64
2023/07/10 03:25:03;;;;;;;1.98;1.88;;;21.50;99.90;;;;;;5029300;28;20210;-63
2023/07/10 03:27:30;;;;;;;1.50;1.45;;;21.50;99.90;;;;;;5011994;28;20561;-63
2023/07/10 03:29:57;;;;;;;1.80;1.70;;;21.50;99.90;;;;;;5028700;28;20207;-64
2023/07/10 03:32:24;;;;;;;2.53;2.33;;;21.50;99.90;;;;;;5028635;28;20198;-63
2023/07/10 03:34:53;;;;;;;2.10;2.00;;;21.50;99.90;;;;;;5028156;28;20194;-64
2023/07/10 03:37:20;;;;;;;1.98;1.88;;;21.50;99.90;;;;;;5028941;28;20302;-63
2023/07/10 03:39:47;;;;;;;1.90;1.80;;;21.50;99.90;;;;;;5029122;28;20198;-64
2023/07/10 03:42:14;;;;;;;1.60;1.50;;;21.60;99.90;;;;;;5013871;28;20244;-64
2023/07/10 03:44:41;;;;;;;1.55;1.50;;;21.60;99.90;;;;;;5028475;28;20574;-64
2023/07/10 03:47:08;;;;;;;2.00;1.90;;;21.60;99.90;;;;;;5028070;28;20275;-64
2023/07/10 03:49:35;;;;;;;1.65;1.55;;;21.70;99.90;;;;;;5028686;28;20198;-64
2023/07/10 03:52:04;;;;;;;1.70;1.60;;;21.70;99.90;;;;;;5026064;28;20206;-64
2023/07/10 03:54:33;;;;;;;1.80;1.70;;;21.70;99.90;;;;;;5028733;28;20186;-64
2023/07/10 03:57:00;;;;;;;1.60;1.50;;;21.70;99.90;;;;;;5027844;28;20646;-64
2023/07/10 03:59:28;;;;;;;1.70;1.60;;;21.80;99.90;;;;;;5028693;28;20233;-64
2023/07/10 04:01:55;;;;;;;1.80;1.70;;;21.80;99.90;;;;;;5027730;28;20197;-64
2023/07/10 04:04:22;;;;;;;1.95;1.85;;;21.80;99.90;;;;;;5016256;28;20323;-64
2023/07/10 04:06:49;;;;;;;2.10;2.00;;;21.80;99.90;;;;;;5028653;28;20278;-64
2023/07/10 04:09:18;;;;;;;1.90;1.80;;;21.80;99.90;;;;;;5011051;28;20523;-63
2023/07/10 04:11:45;;;;;;;2.03;1.65;;;21.90;99.90;;;;;;5023720;28;20249;-63
2023/07/10 04:14:12;;;;;;;2.10;2.00;;;21.90;99.90;;;;;;5028381;28;20244;-63
2023/07/10 04:16:39;;;;;;;2.03;1.92;;;21.90;99.90;;;;;;5028510;28;20202;-64
2023/07/10 04:19:08;;;;;;;1.90;1.80;;;21.90;99.90;;;;;;5027552;28;20256;-63
2023/07/10 04:21:35;;;;;;;1.80;1.70;;;22.00;99.90;;;;;;5029508;28;20306;-63
2023/07/10 04:24:04;;;;;;;1.90;1.80;;;22.00;99.90;;;;;;5029506;28;20244;-63
2023/07/10 04:26:34;;;;;;;1.90;1.80;;;22.00;99.90;;;;;;5028207;28;20226;-64
2023/07/10 04:29:03;;;;;;;2.00;1.90;;;22.00;99.90;;;;;;5019078;28;20198;-63
2023/07/10 04:31:33;;;;;;;2.33;2.03;;;22.10;99.90;;;;;;5027904;28;20222;-63
2023/07/10 04:34:00;;;;;;;1.67;1.58;;;22.10;99.90;;;;;;5028883;28;20203;-63
2023/07/10 04:36:28;;;;;;;1.50;1.40;;;22.20;99.90;;;;;;5028098;28;20296;-64
2023/07/10 04:38:55;;;;;;;2.78;1.90;;;22.20;99.90;;;;;;5029426;28;20276;-64
2023/07/10 04:41:23;;;;;;;1.70;1.60;;;22.20;99.90;;;;;;5028937;28;20569;-63
2023/07/10 04:43:52;;;;;;;1.63;1.52;;;22.30;99.90;;;;;;5028699;28;20666;-64
2023/07/10 04:46:21;;;;;;;1.80;1.70;;;22.30;99.90;;;;;;5019308;28;20194;-63
2023/07/10 04:48:48;;;;;;;1.83;1.70;;;22.30;99.90;;;;;;5032081;28;20576;-64
2023/07/10 04:51:17;;;;;;;2.72;1.90;;;22.40;99.90;;;;;;5033223;28;20190;-64
2023/07/10 04:53:45;;;;;;;2.00;1.80;;;22.40;99.90;;;;;;5028162;28;20657;-64
2023/07/10 04:56:14;;;;;;;2.40;1.90;;;22.40;99.90;;;;;;5034725;28;20245;-64
2023/07/10 04:58:51;;;;;;;1.70;1.60;;;22.50;99.90;;;;;;5025314;28;20198;-64
2023/07/10 05:01:20;;;;;;;2.10;2.00;;;22.50;99.90;;;;;;5029504;28;20218;-64
2023/07/10 05:03:47;;;;;;;1.67;1.58;;;22.50;99.90;;;;;;5032847;28;20234;-64
2023/07/10 05:06:15;;;;;;;1.80;1.70;;;22.50;99.90;;;;;;5032848;28;20272;-64
2023/07/10 05:08:42;;;;;;;1.77;1.60;;;22.50;99.90;;;;;;5032202;28;20199;-64
2023/07/10 05:11:10;;;;;;;2.53;1.92;;;22.50;99.90;;;;;;5031740;28;20198;-64
2023/07/10 05:13:37;;;;;;;2.75;2.20;;;22.50;99.90;;;;;;5031221;28;20199;-64
2023/07/10 05:16:06;;;;;;;1.70;1.60;;;22.60;99.90;;;;;;5030598;28;20203;-63
2023/07/10 05:18:33;;;;;;;1.90;1.80;;;22.60;99.90;;;;;;5030843;28;20194;-64
2023/07/10 05:21:00;;;;;;;1.80;1.70;;;22.60;99.90;;;;;;5031254;28;20692;-64
2023/07/10 05:23:28;;;;;;;1.40;1.40;;;22.70;99.90;;;;;;5031482;28;20736;-64
2023/07/10 05:26:00;;;;;;;1.40;1.40;;;22.70;99.90;;;;;;5031045;28;20641;-64
2023/07/10 05:28:27;;;;;;;1.50;1.50;;;22.70;99.90;;;;;;5030949;28;20226;-63
2023/07/10 05:30:55;;;;;;;1.30;1.30;;;22.80;99.90;;;;;;5030235;28;20221;-63
2023/07/10 05:33:25;;;;;;;1.77;1.50;;;22.80;99.90;;;;;;5030658;28;20245;-63
2023/07/10 05:35:53;;;;;;;1.20;1.20;;;22.80;99.90;;;;;;5012886;28;20246;-64
2023/07/10 05:38:22;;;;;;;2.00;1.50;;;22.80;99.90;;;;;;5012626;28;20210;-64
2023/07/10 05:40:49;;;;;;;1.30;1.30;;;22.90;99.90;;;;;;5030599;28;20217;-64
2023/07/10 05:43:16;;;;;;;1.30;1.30;;;22.90;99.90;;;;;;5026868;28;20199;-64
2023/07/10 05:45:43;;;;;;;2.88;1.95;;;22.90;99.90;;;;;;5030007;28;20269;-63
2023/07/10 05:48:10;;;;;;;1.30;1.30;;;22.90;99.90;;;;;;5030591;28;20662;-64
2023/07/10 05:50:39;;;;;;;1.08;1.08;;;22.90;99.90;;;;;;5012119;28;20264;-64
2023/07/10 05:53:06;;;;;;;1.33;1.23;;;22.90;99.90;;;;;;5030543;28;20260;-64
2023/07/10 05:55:33;;;;;;;1.10;1.10;;;22.90;99.90;;;;;;5011983;28;20506;-64
2023/07/10 05:58:00;;;;;;;1.20;1.20;;;22.90;99.90;;;;;;5011023;28;20230;-64
2023/07/10 06:00:27;;;;;;;1.83;1.67;;;22.90;99.90;;;;;;5029583;28;20202;-64
2023/07/10 06:02:54;;;;;;;1.10;1.10;;;22.90;99.90;;;;;;5028738;28;20235;-62
2023/07/10 06:05:21;;;;;;;2.75;1.30;;;23.00;99.90;;;;;;5031278;28;20210;-64
2023/07/10 06:07:50;;;;;;;1.13;1.13;;;23.00;99.90;;;;;;5017103;28;20213;-65
2023/07/10 06:10:17;;;;;;;2.65;2.17;;;23.00;99.90;;;;;;5024782;28;20617;-64
2023/07/10 06:12:44;;;;;;;3.28;2.35;;;23.10;99.90;;;;;;5029065;28;20194;-64
2023/07/10 06:15:11;;;;;;;2.35;2.10;;;23.10;99.90;;;;;;5029678;28;20216;-65
2023/07/10 06:17:38;;;;;;;1.95;1.85;;;23.10;99.90;;;;;;5027773;28;20507;-65
2023/07/10 06:20:07;;;;;;;1.90;1.80;;;23.10;99.90;;;;;;5028220;28;20273;-65
2023/07/10 06:22:34;;;;;;;1.45;1.40;;;23.10;99.90;;;;;;5011605;28;20218;-64
2023/07/10 06:25:02;;;;;;;1.50;1.40;;;23.20;99.90;;;;;;5028600;28;20210;-64
2023/07/10 06:27:30;;;;;;;1.80;1.70;;;23.20;99.90;;;;;;5012456;28;20245;-64
2023/07/10 06:29:58;;;;;;;1.67;1.58;;;23.20;99.90;;;;;;5027576;28;20203;-64
2023/07/10 06:32:25;;;;;;;1.83;1.73;;;23.30;99.90;;;;;;5027725;28;20605;-64
2023/07/10 06:34:52;;;;;;;1.35;1.33;;;23.30;99.90;;;;;;5028021;28;20649;-64
2023/07/10 06:37:19;;;;;;;1.55;1.45;;;23.30;99.90;;;;;;5028222;28;20210;-64
2023/07/10 06:40:06;;;;;;;1.30;1.30;;;23.40;99.90;;;;;;5028397;28;20230;-64
2023/07/10 06:42:33;;;;;;;1.55;1.45;;;23.50;99.90;;;;;;5027067;28;20199;-64
2023/07/10 06:45:00;;;;;;;1.30;1.30;;;23.50;99.90;;;;;;5027861;28;20222;-65
2023/07/10 06:47:27;;;;;;;1.02;1.02;;;23.60;99.90;;;;;;5014741;28;20206;-65
2023/07/10 06:49:54;;;;;;;1.10;1.10;;;23.60;99.90;;;;;;5029775;28;20206;-65
2023/07/10 06:52:21;;;;;;;3.92;1.40;;;23.60;99.90;;;;;;5027178;28;20194;-65
2023/07/10 06:54:49;;;;;;;1.40;1.40;;;23.60;99.90;;;;;;5028002;28;20195;-64
2023/07/10 06:57:17;;;;;;;1.08;1.08;;;23.60;99.90;;;;;;5026986;28;20222;-64
2023/07/10 06:59:44;;;;;;;1.30;1.20;;;23.70;99.90;;;;;;5009706;28;20221;-64
2023/07/10 07:02:13;;;;;;;0.98;0.98;;;23.70;99.90;;;;;;5026566;28;20283;-65
2023/07/10 07:04:40;;;;;;;0.80;0.80;;;23.80;99.90;;;;;;5027502;28;20206;-64
2023/07/10 07:07:08;;;;;;;1.13;1.10;;;23.80;99.90;;;;;;5026886;28;20268;-64
2023/07/10 07:09:35;;;;;;;1.00;1.00;;;23.80;99.90;;;;;;5027866;28;20256;-64
2023/07/10 07:12:02;;;;;;;1.20;0.80;;;23.80;99.90;;;;;;5027403;28;20648;-64
2023/07/10 07:14:32;;;;;;;1.10;1.10;;;23.80;99.90;;;;;;5027161;28;20931;-64
2023/07/10 07:16:59;;;;;;;0.70;0.70;;;23.80;99.90;;;;;;5026832;28;20206;-65
2023/07/10 07:19:26;;;;;;;1.02;1.02;;;23.90;99.90;;;;;;5027225;28;20202;-65
2023/07/10 07:21:53;;;;;;;0.65;0.65;;;23.90;99.90;;;;;;5027514;28;20238;-63
2023/07/10 07:24:20;;;;;;;0.80;0.80;;;24.00;99.90;;;;;;5027708;28;20272;-65
2023/07/10 07:26:47;;;;;;;1.00;1.00;;;23.90;99.90;;;;;;5007993;28;20289;-65
2023/07/10 07:29:14;;;;;;;0.90;0.90;;;24.00;99.90;;;;;;5027298;28;20198;-64
2023/07/10 07:31:43;;;;;;;1.38;1.02;;;24.00;99.90;;;;;;5026663;28;20614;-64
2023/07/10 07:34:10;;;;;;;1.30;1.00;;;24.00;99.90;;;;;;5027349;28;20240;-64
2023/07/10 07:36:37;;;;;;;0.90;0.90;;;24.10;99.90;;;;;;5028290;28;20265;-64
2023/07/10 07:39:05;;;;;;;0.90;0.90;;;24.10;99.90;;;;;;5020398;28;20601;-64
2023/07/10 07:41:33;;;;;;;0.85;0.85;;;24.10;99.90;;;;;;5027095;28;20633;-65
2023/07/10 07:44:01;;;;;;;0.80;0.80;;;24.10;99.90;;;;;;5028029;28;20205;-65
2023/07/10 07:46:28;;;;;;;0.80;0.80;;;24.10;99.90;;;;;;5008721;28;20234;-65
2023/07/10 07:48:57;;;;;;;0.70;0.70;;;24.10;99.80;;;;;;5028067;28;20278;-65
2023/07/10 07:51:24;;;;;;;0.90;0.90;;;24.10;99.70;;;;;;5026567;28;20194;-64
2023/07/10 07:54:03;;;;;;;0.80;0.80;;;24.20;99.60;;;;;;5027343;28;20573;-64
2023/07/10 07:56:30;;;;;;;0.70;0.70;;;24.20;99.50;;;;;;5010409;28;20648;-64
2023/07/10 07:58:57;;;;;;;0.85;0.85;;;24.20;99.30;;;;;;5010592;28;20202;-64
2023/07/10 08:01:24;;;;;;;0.73;0.73;;;24.20;99.20;;;;;;5026589;28;20209;-65
2023/07/10 08:03:51;;;;;;;2.10;0.73;;;24.20;99.10;;;;;;5029322;28;20252;-64
2023/07/10 08:06:20;;;;;;;0.80;0.80;;;24.20;99.10;;;;;;5023661;28;20238;-64
2023/07/10 08:08:47;;;;;;;0.60;0.60;;;24.30;98.90;;;;;;5025924;28;20669;-64
2023/07/10 08:11:17;;;;;;;0.80;0.80;;;24.40;98.70;;;;;;5027186;28;20198;-64
2023/07/10 08:13:44;;;;;;;0.70;0.70;;;24.50;98.30;;;;;;5027865;28;20190;-64
2023/07/10 08:16:11;;;;;;;0.77;0.77;;;24.50;98.00;;;;;;5026381;28;20285;-64
2023/07/10 08:18:39;;;;;;;0.52;0.52;;;24.60;97.70;;;;;;5027689;28;20696;-66
2023/07/10 08:21:08;;;;;;;0.80;0.80;;;24.60;97.30;;;;;;5030713;28;20194;-66
2023/07/10 08:23:37;;;;;;;0.82;0.82;;;24.70;96.90;;;;;;5031023;28;20226;-66
2023/07/10 08:26:05;;;;;;;0.90;0.90;;;24.70;96.00;;;;;;5012924;28;20217;-66
2023/07/10 08:28:32;;;;;;;1.00;1.00;;;24.70;95.60;;;;;;5030367;28;20209;-66
2023/07/10 08:31:00;;;;;;;1.10;1.10;;;24.80;94.70;;;;;;5012136;28;20277;-67
2023/07/10 08:33:27;;;;;;;1.40;1.30;;;24.90;93.70;;;;;;5014147;28;20264;-66
2023/07/10 08:35:55;;;;;;;0.90;0.90;;;25.00;92.90;;;;;;5013135;28;20616;-66
2023/07/10 08:38:23;;;;;;;0.80;0.80;;;25.00;92.90;;;;;;5010073;28;20199;-67
2023/07/10 08:40:55;;;;;;;0.90;0.90;;;25.00;92.90;;;;;;5030693;28;20267;-67
2023/07/10 08:43:28;;;;;;;0.70;0.70;;;25.10;92.80;;;;;;5029877;28;20286;-67
2023/07/10 08:46:03;;;;;;;1.10;1.10;;;25.10;92.60;;;;;;5029818;28;20210;-66
2023/07/10 08:48:35;;;;;;;1.27;1.27;;;25.20;91.50;;;;;;5029769;28;20252;-67
2023/07/10 08:51:12;;;;;;;1.30;1.25;;;25.30;91.00;;;;;;5030571;28;20201;-67
2023/07/10 08:53:42;;;;;;;1.40;1.10;;;25.30;90.00;;;;;;5029717;28;20198;-66
2023/07/10 08:56:22;;;;;;;5.13;1.27;;;25.40;89.10;;;;;;5029855;28;20199;-66
2023/07/10 08:58:50;;;;;;;1.20;1.20;;;25.40;87.70;;;;;;5024232;28;20206;-66
2023/07/10 09:01:28;;;;;;;1.17;1.15;;;25.50;86.90;;;;;;5030462;28;20198;-67
2023/07/10 09:03:58;;;;;;;1.08;1.08;;;25.50;86.90;;;;;;5029320;28;20765;-67
2023/07/10 09:06:35;;;;;;;0.90;0.90;;;25.60;87.00;;;;;;5028354;28;20261;-67
2023/07/10 09:09:03;;;;;;;0.80;0.80;;;25.70;86.60;;;;;;5030146;28;20183;-68
2023/07/10 09:11:32;;;;;;;0.73;0.73;;;25.70;84.80;;;;;;5030490;28;20225;-66
2023/07/10 09:14:05;;;;;;;0.70;0.70;;;25.70;84.60;;;;;;5030712;28;20229;-67
2023/07/10 09:16:32;;;;;;;0.63;0.63;;;25.80;84.50;;;;;;5030426;28;20195;-67
2023/07/10 09:19:04;;;;;;;0.90;0.90;;;25.80;84.10;;;;;;5030400;28;20282;-67
2023/07/10 09:21:33;;;;;;;1.40;1.30;;;25.90;83.90;;;;;;5030729;28;20277;-68
2023/07/10 09:24:00;;;;;;;1.00;1.00;;;25.90;83.50;;;;;;5030235;28;20226;-66
2023/07/10 09:26:30;;;;;;;0.88;0.88;;;26.00;83.00;;;;;;5029627;28;20305;-67
2023/07/10 09:29:14;;;;;;;0.90;0.90;;;26.00;82.70;;;;;;5029456;28;20198;-67
2023/07/10 09:31:50;;;;;;;1.10;1.10;;;26.10;82.70;;;;;;5029186;28;20191;-67
2023/07/10 09:34:21;;;;;;;0.93;0.93;;;26.10;81.20;;;;;;5009517;28;20237;-64
2023/07/10 09:36:51;;;;;;;1.00;1.00;;;26.10;82.00;;;;;;5015425;28;20284;-66
2023/07/10 09:39:18;;;;;;;1.00;1.00;;;26.20;80.60;;;;;;5011634;28;20210;-66
2023/07/10 09:41:48;;;;;;;0.90;0.90;;;26.20;80.40;;;;;;5030931;28;20203;-66
2023/07/10 09:44:19;;;;;;;0.85;0.85;;;26.30;80.60;;;;;;5007191;28;20192;-66
2023/07/10 09:46:47;;;;;;;0.82;0.82;;;26.30;80.40;;;;;;5028954;28;20268;-66
2023/07/10 09:49:17;;;;;;;0.80;0.80;;;26.30;80.40;;;;;;5029221;28;20203;-66
2023/07/10 09:51:56;;;;;;;0.88;0.88;;;26.40;79.70;;;;;;5028668;28;20508;-66
2023/07/10 09:54:23;;;;;;;1.38;0.90;;;26.50;79.50;;;;;;5022745;28;20264;-66
2023/07/10 09:56:52;;;;;;;0.90;0.90;;;26.50;78.90;;;;;;5028656;28;20237;-66
2023/07/10 09:59:26;;;;;;;1.23;1.13;;;26.50;78.00;;;;;;5028781;28;20202;-67
2023/07/10 10:01:55;;;;;;;1.08;1.08;;;26.50;77.40;;;;;;5027384;28;20286;-67
2023/07/10 10:04:25;;;;;;;1.08;1.08;;;26.60;76.90;;;;;;5028193;28;20233;-67
2023/07/10 10:06:58;;;;;;;1.00;1.00;;;26.60;75.80;;;;;;5021038;28;20264;-67
2023/07/10 10:09:29;;;;;;;1.17;1.13;;;26.60;75.10;;;;;;5029203;28;20198;-67
2023/07/10 10:12:03;;;;;;;1.00;1.00;;;26.60;75.20;;;;;;5028872;28;20221;-65
2023/07/10 10:14:41;;;;;;;0.90;0.90;;;26.60;75.50;;;;;;5028584;28;20202;-64
2023/07/10 10:17:12;;;;;;;1.10;1.10;;;26.60;76.30;;;;;;5021990;28;20645;-64
2023/07/10 10:19:44;;;;;;;1.20;1.20;;;26.70;76.90;;;;;;5028182;28;20284;-64
2023/07/10 10:22:12;;;;;;;1.20;1.20;;;26.70;77.40;;;;;;5028496;28;20253;-64
2023/07/10 10:24:40;;;;;;;1.23;1.23;;;26.80;76.40;;;;;;5010882;28;20280;-64
2023/07/10 10:27:20;;;;;;;1.10;1.10;;;26.80;75.80;;;;;;5016562;28;20218;-64
2023/07/10 10:30:11;;;;;;;1.17;1.17;;;26.80;76.40;;;;;;5010286;28;20206;-64
2023/07/10 10:32:48;;;;;;;1.00;1.00;;;26.90;77.00;;;;;;5020729;28;20210;-65
2023/07/10 10:35:21;;;;;;;1.67;1.50;;;27.00;77.10;;;;;;5000066;28;20226;-64
2023/07/10 10:38:02;;;;;;;1.20;1.10;;;27.10;77.10;;;;;;5027060;28;20206;-65
2023/07/10 10:40:39;;;;;;;1.48;1.10;;;27.10;76.40;;;;;;5027704;28;20733;-64
2023/07/10 10:43:28;;;;;;;1.05;1.05;;;27.20;76.50;;;;;;5027257;28;20568;-65
2023/07/10 10:46:03;;;;;;;1.10;1.10;;;27.30;76.60;;;;;;5023374;28;20279;-65
2023/07/10 10:48:36;;;;;;;2.28;0.93;;;27.30;75.60;;;;;;5026239;28;20216;-65
2023/07/10 10:51:12;;;;;;;1.10;1.10;;;27.30;75.30;;;;;;5027903;28;20224;-64
2023/07/10 10:53:50;;;;;;;1.48;1.45;;;27.30;75.40;;;;;;5028211;28;20606;-64
2023/07/10 10:56:22;;;;;;;1.40;1.30;;;27.30;74.50;;;;;;5028581;28;20720;-64
2023/07/10 10:59:01;;;;;;;0.90;0.90;;;27.30;73.90;;;;;;5027833;28;20294;-65
2023/07/10 11:01:37;;;;;;;1.30;1.20;;;27.20;74.00;;;;;;5027193;28;20273;-64
2023/07/10 11:04:15;;;;;;;1.05;1.05;;;27.20;74.40;;;;;;5027673;28;20315;-65
2023/07/10 11:06:55;;;;;;;0.98;0.98;;;27.30;74.90;;;;;;5027845;28;20283;-65
2023/07/10 11:09:26;;;;;;;0.80;0.80;;;27.30;75.40;;;;;;5013953;28;20578;-65
2023/07/10 11:11:55;;;;;;;0.70;0.70;;;27.30;75.60;;;;;;5015803;28;20209;-64
2023/07/10 11:14:22;;;;;;;0.80;0.80;;;27.30;76.00;;;;;;5027642;28;20278;-65
2023/07/10 11:16:52;;;;;;;0.80;0.80;;;27.20;77.00;;;;;;5027951;28;20289;-65
2023/07/10 11:19:24;;;;;;;0.80;0.80;;;27.20;76.70;;;;;;5009718;28;20211;-63
2023/07/10 11:21:52;;;;;;;0.80;0.80;;;27.20;76.90;;;;;;5015063;28;20222;-64
2023/07/10 11:24:34;;;;;;;0.80;0.80;;;27.20;77.00;;;;;;5028349;28;20673;-64
2023/07/10 11:27:11;;;;;;;0.80;0.80;;;27.10;76.90;;;;;;5027026;28;20281;-65
2023/07/10 11:29:42;;;;;;;0.70;0.70;;;27.20;76.90;;;;;;5009600;28;20272;-65
2023/07/10 11:32:20;;;;;;;0.60;0.60;;;27.20;77.00;;;;;;5026620;28;20562;-65
2023/07/10 11:34:53;;;;;;;0.60;0.60;;;27.20;76.80;;;;;;5027752;28;20198;-64
2023/07/10 11:38:04;;;;;;;1.08;0.98;;;27.20;76.80;;;;;;5027382;28;20290;-64
2023/07/10 11:40:50;;;;;;;1.20;1.13;;;27.10;76.60;;;;;;5027071;28;20203;-65
2023/07/10 11:43:53;;;;;;;0.95;0.90;;;27.10;77.20;;;;;;5026604;28;20187;-65
2023/07/10 11:46:32;;;;;;;0.70;0.70;;;27.00;77.50;;;;;;5020180;28;20213;-64
2023/07/10 11:49:12;;;;;;;0.70;0.70;;;26.90;77.60;;;;;;5026006;28;20268;-65
2023/07/10 11:51:40;;;;;;;0.63;0.63;;;26.90;77.70;;;;;;5027427;28;20198;-65
2023/07/10 11:54:44;;;;;;;0.68;0.68;;;26.90;77.90;;;;;;5009805;28;20630;-65
2023/07/10 11:57:15;;;;;;;0.98;0.98;;;26.90;78.10;;;;;;5030044;28;20190;-65
2023/07/10 11:59:51;;;;;;;0.68;0.68;;;26.90;78.40;;;;;;5030913;28;20372;-65
2023/07/10 12:02:32;;;;;;;0.88;0.88;;;26.80;78.50;;;;;;5015887;28;20238;-66
2023/07/10 12:05:02;;;;;;;0.90;0.90;;;26.80;78.70;;;;;;5030957;28;20186;-64
2023/07/10 12:07:29;;;;;;;0.73;0.73;;;26.70;78.80;;;;;;5029818;28;20213;-65
2023/07/10 12:10:00;;;;;;;0.90;0.90;;;26.70;78.90;;;;;;5030730;28;20218;-65
2023/07/10 12:12:32;;;;;;;0.88;0.70;;;26.60;78.70;;;;;;5030988;28;20497;-65
2023/07/10 12:15:02;;;;;;;0.73;0.73;;;26.50;79.00;;;;;;5028096;28;20186;-64
2023/07/10 12:17:32;;;;;;;0.60;0.60;;;26.50;79.70;;;;;;5030089;28;20217;-64
2023/07/10 12:20:03;;;;;;;1.80;0.85;;;26.40;80.20;;;;;;5031188;28;20593;-64
2023/07/10 12:22:36;;;;;;;1.27;1.00;;;26.40;81.40;;;;;;5022547;28;20202;-64
2023/07/10 12:25:11;;;;;;;0.75;0.75;;;26.30;82.10;;;;;;5028911;28;20190;-65
2023/07/10 12:27:38;;;;;;;0.70;0.70;;;26.30;82.10;;;;;;5020111;28;20217;-64
2023/07/10 12:30:15;;;;;;;0.60;0.60;;;26.30;82.20;;;;;;5026921;28;20239;-65
2023/07/10 12:32:43;;;;;;;0.80;0.80;;;26.30;82.40;;;;;;5029061;28;20209;-64
2023/07/10 12:35:17;;;;;;;0.70;0.70;;;26.30;82.70;;;;;;5028392;28;20191;-65
2023/07/10 12:37:48;;;;;;;0.70;0.70;;;26.30;82.70;;;;;;5023654;28;20327;-65
2023/07/10 12:40:17;;;;;;;0.70;0.70;;;26.30;83.30;;;;;;5030023;28;20236;-65
2023/07/10 12:42:46;;;;;;;0.70;0.70;;;26.30;83.40;;;;;;5029469;28;20305;-64
2023/07/10 12:45:20;;;;;;;0.70;0.70;;;26.30;83.40;;;;;;5010179;28;20199;-63
2023/07/10 12:47:54;;;;;;;1.00;0.70;;;26.30;83.80;;;;;;5029792;28;20912;-64
2023/07/10 12:50:36;;;;;;;0.70;0.70;;;26.30;84.20;;;;;;5011123;28;20225;-65
2023/07/10 12:53:07;;;;;;;0.70;0.70;;;26.20;84.30;;;;;;5030279;28;20194;-65
2023/07/10 12:55:35;;;;;;;0.60;0.60;;;26.20;84.70;;;;;;5036013;28;20592;-65
2023/07/10 12:58:04;;;;;;;0.50;0.50;;;26.20;84.80;;;;;;5029543;28;20194;-63
2023/07/10 13:00:42;;;;;;;0.73;0.73;;;26.10;84.90;;;;;;5029219;28;20232;-64
2023/07/10 13:03:25;;;;;;;0.70;0.70;;;26.10;85.10;;;;;;5032701;28;20229;-65
2023/07/10 13:05:57;;;;;;;0.60;0.60;;;26.00;85.20;;;;;;5028861;28;20210;-64